Time;durP1;ratioP1;P1;durP2;ratioP2;P2;SDS_P1;SDS_P2;PMS_P1;PMS_P2;Temp;Humidity;BMP_temperature;BMP_pressure;BME280_temperature;BME280_humidity;BME280_pressure;Samples;Min_cycle;Max_cycle;Signal;HPM_P1;HPM_P2
2022/12/31 00:01:13;;;;;;;5.38;3.15;;;11.70;99.90;;;;;;5116692;28;20114;-80
2022/12/31 00:03:39;;;;;;;8.38;3.00;;;11.50;99.90;;;;;;5115006;28;20042;-80
2022/12/31 00:06:25;;;;;;;8.20;2.55;;;11.60;99.90;;;;;;5115258;28;20039;-80
2022/12/31 00:08:52;;;;;;;9.75;2.70;;;11.70;99.90;;;;;;5098347;28;20047;-80
2022/12/31 00:11:21;;;;;;;6.80;2.78;;;11.80;99.90;;;;;;5114761;28;20504;-80
2022/12/31 00:13:48;;;;;;;5.15;2.55;;;11.80;99.90;;;;;;5115134;28;20051;-79
2022/12/31 00:16:23;;;;;;;15.88;3.30;;;11.60;99.90;;;;;;5114758;28;20508;-79
2022/12/31 00:18:51;;;;;;;11.18;3.67;;;11.90;99.90;;;;;;5115140;28;20066;-80
2022/12/31 00:21:17;;;;;;;5.82;2.60;;;11.90;99.90;;;;;;5116238;28;20043;-80
2022/12/31 00:23:43;;;;;;;9.18;2.38;;;11.90;99.90;;;;;;5114868;28;20040;-79
2022/12/31 00:26:13;;;;;;;10.13;2.72;;;11.70;99.90;;;;;;5115441;28;20085;-80
2022/12/31 00:28:39;;;;;;;7.40;2.95;;;12.00;99.90;;;;;;5115176;28;20092;-80
2022/12/31 00:31:19;;;;;;;7.93;3.22;;;12.00;99.90;;;;;;5116324;28;20039;-80
2022/12/31 00:33:44;;;;;;;6.07;3.22;;;11.80;99.90;;;;;;5114453;28;20493;-80
2022/12/31 00:36:22;;;;;;;11.30;3.33;;;11.90;99.90;;;;;;5097534;28;20043;-80
2022/12/31 00:38:50;;;;;;;9.00;3.08;;;12.00;99.90;;;;;;5114557;28;20035;-80
2022/12/31 00:41:17;;;;;;;10.45;3.67;;;12.10;99.90;;;;;;5114159;28;20035;-80
2022/12/31 00:43:43;;;;;;;12.18;3.78;;;11.90;99.90;;;;;;5114215;28;20230;-80
2022/12/31 00:46:10;;;;;;;14.10;3.65;;;12.00;99.90;;;;;;5114492;28;20051;-79
2022/12/31 00:48:35;;;;;;;8.70;4.22;;;12.10;99.90;;;;;;5114346;28;20054;-80
2022/12/31 00:51:03;;;;;;;9.43;3.90;;;11.80;99.90;;;;;;5114695;28;20051;-79
2022/12/31 00:53:29;;;;;;;12.27;3.63;;;11.90;99.90;;;;;;5116898;28;20047;-79
2022/12/31 00:56:02;;;;;;;11.52;3.08;;;11.90;99.90;;;;;;5117026;28;20044;-79
2022/12/31 00:58:28;;;;;;;11.40;3.45;;;12.00;99.90;;;;;;5114357;28;20528;-79
2022/12/31 01:00:54;;;;;;;9.57;4.90;;;11.90;99.90;;;;;;5114067;28;20051;-80
2022/12/31 01:03:20;;;;;;;14.75;3.95;;;11.80;99.90;;;;;;5096320;28;20035;-79
2022/12/31 01:05:45;;;;;;;12.60;4.32;;;12.00;99.90;;;;;;5114030;28;20036;-80
2022/12/31 01:08:11;;;;;;;10.07;4.22;;;11.90;99.90;;;;;;5113809;28;20497;-80
2022/12/31 01:13:20;;;;;;;9.98;3.30;;;11.70;99.90;;;;;;5113416;28;20044;-80
2022/12/31 01:15:46;;;;;;;8.48;4.18;;;11.80;99.90;;;;;;5096253;28;20039;-79
2022/12/31 01:18:12;;;;;;;8.95;4.35;;;11.90;99.90;;;;;;5113268;28;20056;-79
2022/12/31 01:20:40;;;;;;;12.63;3.70;;;11.80;99.90;;;;;;5112825;28;20435;-79
2022/12/31 01:23:06;;;;;;;11.45;4.13;;;12.10;99.90;;;;;;5112880;28;20059;-79
2022/12/31 01:25:40;;;;;;;10.60;4.40;;;11.80;99.90;;;;;;5113708;28;20077;-80
2022/12/31 01:28:07;;;;;;;7.85;3.10;;;12.00;99.90;;;;;;5114116;28;20108;-79
2022/12/31 01:30:36;;;;;;;10.23;3.90;;;11.70;99.90;;;;;;5113003;28;20413;-79
2022/12/31 01:33:01;;;;;;;7.03;3.50;;;12.00;99.90;;;;;;5112624;28;20122;-79
2022/12/31 01:35:27;;;;;;;16.00;4.57;;;11.80;99.90;;;;;;5114053;28;20078;-79
2022/12/31 01:37:52;;;;;;;8.15;4.38;;;11.70;99.90;;;;;;5112782;28;20040;-79
2022/12/31 01:40:18;;;;;;;11.32;5.00;;;11.70;99.90;;;;;;5113038;28;20036;-79
2022/12/31 01:42:44;;;;;;;7.03;4.55;;;11.80;99.90;;;;;;5112318;28;20032;-80
2022/12/31 01:45:12;;;;;;;6.57;5.10;;;11.90;99.90;;;;;;5112833;28;20035;-79
2022/12/31 01:47:42;;;;;;;8.48;5.30;;;12.00;99.90;;;;;;5112932;28;20032;-79
2022/12/31 01:50:14;;;;;;;9.30;5.60;;;11.70;99.90;;;;;;5112769;28;20042;-79
2022/12/31 01:52:44;;;;;;;7.88;5.43;;;11.80;99.90;;;;;;5111942;28;20036;-80
2022/12/31 01:55:15;;;;;;;11.65;5.13;;;11.70;99.90;;;;;;5095971;28;20042;-79
2022/12/31 01:57:42;;;;;;;11.10;5.25;;;11.90;99.90;;;;;;5095321;28;20063;-79
2022/12/31 02:00:08;;;;;;;9.25;5.10;;;11.70;99.90;;;;;;5112704;28;20039;-79
2022/12/31 02:02:34;;;;;;;7.15;4.70;;;11.80;99.90;;;;;;5111686;28;20050;-79
2022/12/31 02:05:04;;;;;;;11.07;5.07;;;11.80;99.90;;;;;;5111843;28;20096;-79
2022/12/31 02:07:30;;;;;;;8.68;5.10;;;11.60;99.90;;;;;;5112245;28;20062;-79
2022/12/31 02:09:56;;;;;;;9.73;4.57;;;11.90;99.90;;;;;;5095029;28;20035;-79
2022/12/31 02:12:22;;;;;;;7.93;4.55;;;11.90;99.90;;;;;;5115149;28;20031;-79
2022/12/31 02:14:51;;;;;;;9.75;5.53;;;11.90;99.90;;;;;;5118109;28;20028;-79
2022/12/31 02:17:44;;;;;;;8.82;4.70;;;11.80;99.90;;;;;;5114955;28;20229;-79
2022/12/31 02:20:31;;;;;;;8.32;4.63;;;11.70;99.90;;;;;;5113340;28;20051;-81
2022/12/31 02:23:40;;;;;;;6.53;4.28;;;11.60;99.90;;;;;;5112358;28;20156;-79
2022/12/31 02:26:48;;;;;;;6.70;4.45;;;11.80;99.90;;;;;;5112750;28;20475;-80
2022/12/31 02:29:51;;;;;;;7.53;4.60;;;11.50;99.90;;;;;;5113833;28;20237;-80
2022/12/31 02:32:29;;;;;;;16.05;5.20;;;11.50;99.90;;;;;;5112588;28;20558;-80
2022/12/31 02:35:06;;;;;;;11.07;5.65;;;11.50;99.90;;;;;;5112869;28;20044;-80
2022/12/31 02:37:35;;;;;;;12.55;5.57;;;11.50;99.90;;;;;;5095277;28;20044;-80
2022/12/31 02:40:01;;;;;;;7.15;4.22;;;11.70;99.90;;;;;;5112044;28;20080;-79
2022/12/31 02:42:26;;;;;;;12.52;5.40;;;11.60;99.90;;;;;;5111354;28;20050;-79
2022/12/31 02:44:52;;;;;;;12.40;4.57;;;11.70;99.90;;;;;;5095292;28;20039;-79
2022/12/31 02:47:21;;;;;;;9.57;4.45;;;11.70;99.90;;;;;;5112054;28;20045;-79
2022/12/31 02:50:19;;;;;;;11.15;4.60;;;11.40;99.90;;;;;;5095588;28;20044;-80
2022/12/31 02:53:28;;;;;;;5.68;4.00;;;11.50;99.90;;;;;;5111672;28;20062;-80
2022/12/31 02:56:05;;;;;;;10.65;4.25;;;11.70;99.90;;;;;;5017181;28;20041;-80
2022/12/31 03:04:34;;;;;;;7.70;3.97;;;11.40;99.90;;;;;;5111734;28;20051;-80
2022/12/31 03:07:17;;;;;;;9.35;3.80;;;11.60;99.90;;;;;;5095022;28;20409;-80
2022/12/31 03:09:43;;;;;;;5.88;3.35;;;11.60;99.90;;;;;;5095489;28;20515;-79
2022/12/31 03:14:55;;;;;;;6.18;3.38;;;11.50;99.90;;;;;;5111816;28;20086;-80
2022/12/31 03:17:21;;;;;;;6.28;2.80;;;11.30;99.90;;;;;;5111585;28;20075;-79
2022/12/31 03:22:35;;;;;;;6.88;2.67;;;11.30;99.90;;;;;;5112117;28;20103;-79
2022/12/31 03:27:52;;;;;;;6.97;2.10;;;11.30;99.90;;;;;;5113686;28;20103;-80
2022/12/31 03:30:19;;;;;;;10.32;2.63;;;11.30;99.90;;;;;;5113187;28;20515;-80
2022/12/31 03:32:46;;;;;;;4.13;1.95;;;11.50;99.90;;;;;;5098034;28;20036;-81
2022/12/31 03:35:14;;;;;;;5.47;1.40;;;11.20;99.90;;;;;;5119867;28;20038;-81
2022/12/31 03:37:40;;;;;;;5.82;1.65;;;11.30;99.90;;;;;;5097437;28;20124;-80
2022/12/31 03:40:08;;;;;;;7.65;1.50;;;11.20;99.90;;;;;;5113998;28;20051;-81
2022/12/31 03:42:33;;;;;;;3.78;1.67;;;11.20;99.90;;;;;;5113306;28;20079;-81
2022/12/31 03:44:59;;;;;;;4.20;1.20;;;11.30;99.90;;;;;;5096011;28;20381;-80
2022/12/31 03:47:24;;;;;;;5.30;1.40;;;11.30;99.90;;;;;;5112757;28;20116;-80
2022/12/31 03:49:50;;;;;;;4.63;1.30;;;11.30;99.90;;;;;;5112383;28;20038;-80
2022/12/31 03:52:15;;;;;;;6.47;1.00;;;11.30;99.90;;;;;;5113372;28;20050;-81
2022/12/31 03:54:41;;;;;;;4.25;1.20;;;11.20;99.90;;;;;;5095222;28;20032;-80
2022/12/31 03:57:07;;;;;;;4.15;1.55;;;11.10;99.90;;;;;;5112434;28;20040;-80
2022/12/31 03:59:32;;;;;;;5.68;1.10;;;11.00;99.90;;;;;;5111789;28;20031;-81
2022/12/31 04:01:58;;;;;;;3.13;1.30;;;11.20;99.90;;;;;;5111571;28;20389;-80
2022/12/31 04:04:23;;;;;;;4.00;1.25;;;11.10;99.90;;;;;;5111672;28;20032;-80
2022/12/31 04:06:49;;;;;;;4.20;1.35;;;11.20;99.90;;;;;;5113238;28;20093;-80
2022/12/31 04:09:14;;;;;;;2.38;1.35;;;11.10;99.90;;;;;;5113468;28;20039;-81
2022/12/31 04:11:40;;;;;;;5.20;1.40;;;11.10;99.90;;;;;;5096410;28;20040;-80
2022/12/31 04:14:05;;;;;;;6.20;1.17;;;11.00;99.90;;;;;;5113071;28;20044;-80
2022/12/31 04:16:31;;;;;;;5.55;1.08;;;11.10;99.90;;;;;;5096290;28;20089;-80
2022/12/31 04:18:57;;;;;;;6.55;1.73;;;11.20;99.90;;;;;;5112829;28;20052;-81
2022/12/31 04:21:23;;;;;;;5.53;1.15;;;11.10;99.90;;;;;;5097230;28;20081;-80
2022/12/31 04:23:48;;;;;;;2.55;1.08;;;11.20;99.90;;;;;;5112762;28;20039;-80
2022/12/31 04:26:14;;;;;;;2.42;0.70;;;10.90;99.90;;;;;;5113423;28;20044;-80
2022/12/31 04:28:39;;;;;;;3.72;1.30;;;11.00;99.90;;;;;;5116625;28;20046;-80
2022/12/31 04:31:05;;;;;;;3.88;1.10;;;10.90;99.90;;;;;;5116828;28;20068;-81
2022/12/31 04:33:30;;;;;;;6.93;1.10;;;11.10;99.90;;;;;;5116427;28;20039;-80
2022/12/31 04:36:00;;;;;;;4.45;1.00;;;10.90;99.90;;;;;;5117057;28;20040;-80
2022/12/31 04:38:28;;;;;;;4.32;1.00;;;10.90;99.90;;;;;;5099954;28;20050;-80
2022/12/31 04:43:38;;;;;;;7.35;2.17;;;10.90;99.90;;;;;;5115628;28;20153;-80
2022/12/31 04:46:03;;;;;;;2.90;1.50;;;10.90;99.90;;;;;;5116437;28;20398;-80
2022/12/31 04:48:29;;;;;;;8.10;2.38;;;11.10;99.90;;;;;;5099282;28;20454;-81
2022/12/31 04:50:54;;;;;;;4.55;1.75;;;10.80;99.90;;;;;;5116363;28;20050;-80
2022/12/31 04:53:20;;;;;;;6.82;2.13;;;11.00;99.90;;;;;;5118894;28;20040;-80
2022/12/31 04:55:45;;;;;;;3.88;1.65;;;10.80;99.90;;;;;;5117162;28;20035;-80
2022/12/31 04:58:11;;;;;;;3.88;1.60;;;11.00;99.90;;;;;;5115436;28;20071;-81
2022/12/31 05:00:37;;;;;;;4.45;2.08;;;10.80;99.90;;;;;;5115608;28;20386;-80
2022/12/31 05:03:02;;;;;;;3.70;1.80;;;11.00;99.90;;;;;;5116060;28;20032;-80
2022/12/31 05:05:28;;;;;;;5.35;1.92;;;10.80;99.90;;;;;;5115293;28;20035;-80
2022/12/31 05:07:53;;;;;;;4.25;2.00;;;10.90;99.90;;;;;;5098931;28;20040;-81
2022/12/31 05:10:19;;;;;;;6.38;2.03;;;11.00;99.90;;;;;;5099188;28;20126;-80
2022/12/31 05:12:44;;;;;;;5.97;2.28;;;11.00;99.90;;;;;;5098120;28;20127;-80
2022/12/31 05:15:10;;;;;;;8.88;2.53;;;11.00;99.90;;;;;;5111610;28;20039;-80
2022/12/31 05:17:36;;;;;;;4.00;1.52;;;11.00;99.90;;;;;;5103639;28;20062;-81
2022/12/31 05:20:01;;;;;;;10.80;2.67;;;10.80;99.90;;;;;;5116181;28;20031;-80
2022/12/31 05:22:30;;;;;;;8.98;2.90;;;11.00;99.90;;;;;;5116463;28;20040;-80
2022/12/31 05:24:56;;;;;;;4.78;2.33;;;10.80;99.90;;;;;;5115951;28;20396;-80
2022/12/31 05:27:22;;;;;;;4.40;2.08;;;10.80;99.90;;;;;;5098951;28;20035;-81
2022/12/31 05:29:48;;;;;;;4.93;1.67;;;11.00;99.90;;;;;;5115225;28;20057;-81
2022/12/31 05:32:13;;;;;;;4.88;2.25;;;11.00;99.90;;;;;;5098814;28;20040;-80
2022/12/31 05:34:39;;;;;;;7.00;2.08;;;10.80;99.90;;;;;;5116325;28;20062;-81
2022/12/31 05:37:04;;;;;;;5.20;2.00;;;10.90;99.90;;;;;;5101732;28;20525;-80
2022/12/31 05:39:30;;;;;;;5.32;2.60;;;10.90;99.90;;;;;;5095926;28;20047;-80
2022/12/31 05:41:55;;;;;;;5.70;1.92;;;11.00;99.90;;;;;;5095203;28;20036;-80
2022/12/31 05:44:21;;;;;;;5.22;2.40;;;11.00;99.90;;;;;;5077527;28;20043;-80
2022/12/31 05:46:46;;;;;;;4.90;2.13;;;11.00;99.90;;;;;;5095099;28;20052;-80
2022/12/31 05:49:12;;;;;;;7.93;2.45;;;10.80;99.90;;;;;;5094529;28;20043;-80
2022/12/31 05:51:37;;;;;;;5.78;1.90;;;11.00;99.90;;;;;;5094284;28;20532;-80
2022/12/31 05:54:03;;;;;;;7.55;2.00;;;10.80;99.90;;;;;;5093499;28;20489;-80
2022/12/31 05:56:29;;;;;;;5.90;1.85;;;11.10;99.90;;;;;;5092925;28;20036;-81
2022/12/31 05:58:55;;;;;;;5.72;1.85;;;10.90;99.90;;;;;;5093590;28;20040;-80
2022/12/31 06:01:21;;;;;;;5.15;1.65;;;10.90;99.90;;;;;;5093207;28;20067;-80
2022/12/31 06:03:46;;;;;;;5.88;1.45;;;10.90;99.90;;;;;;5076597;28;20040;-80
2022/12/31 06:06:12;;;;;;;4.97;1.40;;;11.00;99.90;;;;;;5093806;28;20067;-80
2022/12/31 06:08:38;;;;;;;3.58;1.73;;;11.00;99.90;;;;;;5077027;28;20055;-80
2022/12/31 06:11:03;;;;;;;7.38;3.28;;;11.00;99.90;;;;;;5093196;28;20126;-80
2022/12/31 06:13:29;;;;;;;5.82;3.17;;;10.80;99.90;;;;;;5093392;28;20509;-80
2022/12/31 06:15:54;;;;;;;6.20;3.30;;;11.10;99.90;;;;;;5076510;28;20107;-80
2022/12/31 06:18:20;;;;;;;6.47;3.53;;;10.80;99.90;;;;;;5094469;28;20044;-80
2022/12/31 06:20:46;;;;;;;8.70;4.32;;;11.10;99.90;;;;;;5093726;28;20032;-80
2022/12/31 06:23:11;;;;;;;9.88;4.60;;;11.10;99.90;;;;;;5094062;28;20112;-80
2022/12/31 06:25:37;;;;;;;9.35;3.97;;;11.10;99.90;;;;;;5094302;28;20255;-79
2022/12/31 06:28:03;;;;;;;10.40;5.28;;;11.10;99.90;;;;;;5077117;28;20432;-79
2022/12/31 06:30:29;;;;;;;7.05;4.28;;;10.80;99.90;;;;;;5093845;28;20040;-79
2022/12/31 06:32:55;;;;;;;8.02;5.10;;;11.10;99.90;;;;;;5077343;28;20043;-80
2022/12/31 06:35:21;;;;;;;9.10;6.18;;;11.10;99.90;;;;;;5077107;28;20508;-80
2022/12/31 06:37:46;;;;;;;11.25;6.30;;;11.00;99.90;;;;;;5077510;28;20354;-80
2022/12/31 06:40:12;;;;;;;10.50;6.07;;;11.20;99.90;;;;;;5077397;28;20032;-80
2022/12/31 06:42:38;;;;;;;8.02;5.30;;;10.90;99.90;;;;;;5093030;28;20185;-80
2022/12/31 06:45:04;;;;;;;7.22;5.38;;;10.90;99.90;;;;;;5092950;28;20040;-79
2022/12/31 06:47:30;;;;;;;9.07;5.28;;;11.10;99.90;;;;;;5092607;28;20032;-79
2022/12/31 06:49:55;;;;;;;8.85;5.30;;;10.90;99.90;;;;;;5091692;28;20036;-79
2022/12/31 06:52:21;;;;;;;7.07;5.15;;;11.10;99.90;;;;;;5038562;28;1019067;-79
2022/12/31 06:54:47;;;;;;;10.80;6.40;;;11.20;99.90;;;;;;5092865;28;20048;-79
2022/12/31 06:57:13;;;;;;;6.47;4.43;;;11.20;99.90;;;;;;5092585;28;20040;-79
2022/12/31 06:59:39;;;;;;;8.27;4.40;;;11.10;99.90;;;;;;5076470;28;20048;-79
2022/12/31 07:02:04;;;;;;;7.93;3.83;;;11.20;99.90;;;;;;5093212;28;20047;-79
2022/12/31 07:04:52;;;;;;;6.80;4.22;;;11.00;99.90;;;;;;5092774;28;20662;-79
2022/12/31 07:07:32;;;;;;;8.05;4.60;;;11.00;99.90;;;;;;5093202;28;20043;-79
2022/12/31 07:10:06;;;;;;;4.00;3.60;;;11.00;99.90;;;;;;5076328;28;20051;-79
2022/12/31 07:12:44;;;;;;;9.02;3.10;;;11.10;99.90;;;;;;5092133;28;20044;-79
2022/12/31 07:15:18;;;;;;;6.72;3.13;;;11.10;99.90;;;;;;5075641;28;20047;-79
2022/12/31 07:18:23;;;;;;;4.43;2.65;;;11.10;99.90;;;;;;5076095;28;20036;-79
2022/12/31 07:20:49;;;;;;;3.35;2.50;;;10.80;99.90;;;;;;5038322;28;20040;-79
2022/12/31 07:23:15;;;;;;;4.18;2.80;;;10.90;99.90;;;;;;5093503;28;20168;-79
2022/12/31 07:25:48;;;;;;;4.63;2.40;;;10.90;99.90;;;;;;5094649;28;20032;-79
2022/12/31 07:28:21;;;;;;;;;;;10.80;99.90;;;;;;5094465;28;20164;-79
2022/12/31 07:31:03;;;;;;;7.30;2.50;;;10.80;99.90;;;;;;5094243;28;19916;-79
2022/12/31 07:33:48;;;;;;;5.00;2.57;;;10.80;99.90;;;;;;5077028;28;20040;-79
2022/12/31 07:36:47;;;;;;;3.00;2.40;;;10.70;99.90;;;;;;5097703;28;20627;-79
2022/12/31 07:39:20;;;;;;;3.60;2.60;;;10.80;99.90;;;;;;5097624;28;20123;-78
2022/12/31 07:41:57;;;;;;;5.72;2.45;;;10.70;99.90;;;;;;5096705;28;20036;-78
2022/12/31 07:44:36;;;;;;;4.13;2.53;;;10.80;99.90;;;;;;5093000;28;20043;-80
2022/12/31 07:47:04;;;;;;;3.53;2.80;;;10.90;99.90;;;;;;5075009;28;20393;-78
2022/12/31 07:49:32;;;;;;;4.80;2.58;;;10.80;99.90;;;;;;5091390;28;20044;-78
2022/12/31 07:51:57;;;;;;;7.50;2.38;;;10.80;99.90;;;;;;5081741;28;20043;-79
2022/12/31 07:54:23;;;;;;;5.25;2.38;;;10.70;99.90;;;;;;5099318;28;20032;-80
2022/12/31 07:56:50;;;;;;;3.42;2.33;;;10.70;99.90;;;;;;5073942;28;20127;-78
2022/12/31 07:59:21;;;;;;;4.45;2.30;;;10.90;99.90;;;;;;5101695;28;20047;-79
2022/12/31 08:01:56;;;;;;;3.70;2.28;;;10.70;99.90;;;;;;5085057;28;20059;-79
2022/12/31 08:04:33;;;;;;;2.80;2.28;;;10.90;99.90;;;;;;5107405;28;20512;-79
2022/12/31 08:07:29;;;;;;;4.88;3.03;;;10.80;99.90;;;;;;5113573;28;20528;-79
2022/12/31 08:10:12;;;;;;;3.28;2.45;;;10.80;99.90;;;;;;5095171;28;20056;-79
2022/12/31 08:12:39;;;;;;;2.47;1.50;;;10.90;99.90;;;;;;5094292;28;20040;-79
2022/12/31 08:15:13;;;;;;;1.80;1.70;;;10.80;99.90;;;;;;5079435;28;20044;-79
2022/12/31 08:17:39;;;;;;;2.13;1.60;;;10.90;99.90;;;;;;5095243;28;20127;-79
2022/12/31 08:20:05;;;;;;;2.35;1.80;;;10.80;99.90;;;;;;5093642;28;20190;-79
2022/12/31 08:22:41;;;;;;;3.15;1.80;;;10.90;99.90;;;;;;5097371;28;20044;-79
2022/12/31 08:25:34;;;;;;;2.97;1.83;;;11.00;99.90;;;;;;5097565;28;20047;-79
2022/12/31 08:28:15;;;;;;;2.80;1.70;;;11.00;99.90;;;;;;5095155;28;20051;-79
2022/12/31 08:30:53;;;;;;;3.50;1.80;;;10.80;99.90;;;;;;5094396;28;20036;-79
2022/12/31 08:33:27;;;;;;;2.00;1.40;;;11.00;99.90;;;;;;5093236;28;20079;-79
2022/12/31 08:36:10;;;;;;;;;;;10.90;99.90;;;;;;5077539;28;20043;-79
2022/12/31 08:39:02;;;;;;;2.47;1.83;;;11.00;99.90;;;;;;5094319;28;19928;-79
2022/12/31 08:41:48;;;;;;;2.53;1.50;;;10.90;99.90;;;;;;5087047;28;20409;-79
2022/12/31 08:44:40;;;;;;;1.85;1.52;;;10.90;99.90;;;;;;5115913;28;20035;-79
2022/12/31 08:47:44;;;;;;;1.65;1.27;;;11.10;99.90;;;;;;5114184;28;20144;-79
2022/12/31 08:50:17;;;;;;;1.83;1.20;;;11.10;99.90;;;;;;5096596;28;20487;-79
2022/12/31 08:52:44;;;;;;;2.17;1.25;;;11.20;99.90;;;;;;5091038;28;20050;-79
2022/12/31 08:55:17;;;;;;;1.50;1.23;;;11.20;99.90;;;;;;5097763;28;20067;-79
2022/12/31 08:57:54;;;;;;;;;;;11.20;99.90;;;;;;5105856;28;20036;-79
2022/12/31 09:00:20;;;;;;;2.53;2.00;;;11.20;99.90;;;;;;5096213;28;19916;-81
2022/12/31 09:03:13;;;;;;;5.03;3.00;;;11.30;99.90;;;;;;5078950;28;20440;-80
2022/12/31 09:06:12;;;;;;;2.28;1.75;;;11.40;99.90;;;;;;5080445;28;20093;-79
2022/12/31 09:08:46;;;;;;;4.45;2.78;;;11.40;99.90;;;;;;5097087;28;20055;-80
2022/12/31 09:11:55;;;;;;;5.15;2.42;;;11.30;99.90;;;;;;5096679;28;20032;-79
2022/12/31 09:14:40;;;;;;;3.20;2.35;;;11.50;99.90;;;;;;5093985;28;20157;-79
2022/12/31 09:17:32;;;;;;;5.20;2.55;;;11.50;99.90;;;;;;5096784;28;20073;-79
2022/12/31 09:19:58;;;;;;;6.07;3.28;;;11.60;99.90;;;;;;5095418;28;20047;-79
2022/12/31 09:22:23;;;;;;;3.85;2.78;;;11.70;99.90;;;;;;5078548;28;20036;-79
2022/12/31 09:24:49;;;;;;;5.13;2.97;;;11.70;99.90;;;;;;5078722;28;20092;-80
2022/12/31 09:27:33;;;;;;;4.20;2.72;;;11.70;99.90;;;;;;5095057;28;20043;-80
2022/12/31 09:30:04;;;;;;;5.95;4.55;;;11.70;99.90;;;;;;5095458;28;20032;-79
2022/12/31 09:32:58;;;;;;;23.08;16.60;;;11.80;99.90;;;;;;5093755;28;20520;-80
2022/12/31 09:35:39;;;;;;;36.85;23.40;;;11.80;99.90;;;;;;5093265;28;20075;-79
2022/12/31 09:38:31;;;;;;;17.75;11.38;;;11.90;99.90;;;;;;5093384;28;20119;-78
2022/12/31 09:41:14;;;;;;;41.83;26.27;;;11.90;99.90;;;;;;5076156;28;20101;-79
2022/12/31 09:44:21;;;;;;;66.72;41.88;;;12.00;99.90;;;;;;5093005;28;20040;-79
2022/12/31 09:47:29;;;;;;;41.95;24.67;;;12.10;99.90;;;;;;5096407;28;20063;-79
2022/12/31 09:50:27;;;;;;;7.90;4.55;;;12.00;99.90;;;;;;5112250;28;20520;-79
2022/12/31 09:53:15;;;;;;;17.15;11.77;;;12.00;99.90;;;;;;5085522;28;20055;-79
2022/12/31 09:55:54;;;;;;;32.80;18.90;;;12.00;99.90;;;;;;5101313;28;20040;-79
2022/12/31 09:58:35;;;;;;;7.70;4.93;;;12.20;99.90;;;;;;5101914;28;20520;-79
2022/12/31 10:01:21;;;;;;;15.50;9.65;;;12.20;99.90;;;;;;5085369;28;20032;-79
2022/12/31 10:04:08;;;;;;;7.15;4.10;;;12.20;99.90;;;;;;5101610;28;20032;-79
2022/12/31 10:06:53;;;;;;;10.95;5.97;;;12.30;99.90;;;;;;5102643;28;20028;-80
2022/12/31 10:09:56;;;;;;;10.98;5.25;;;12.30;99.90;;;;;;5103537;28;20031;-80
2022/12/31 10:12:49;;;;;;;6.65;4.10;;;12.40;99.90;;;;;;5101166;28;20035;-80
2022/12/31 10:15:27;;;;;;;8.48;5.20;;;12.30;99.90;;;;;;5089153;28;20128;-79
2022/12/31 10:18:02;;;;;;;9.70;6.13;;;12.40;99.90;;;;;;5091668;28;20048;-80
2022/12/31 10:20:53;;;;;;;3.92;2.58;;;12.40;99.90;;;;;;5102631;28;20039;-80
2022/12/31 10:23:30;;;;;;;6.97;3.20;;;12.50;99.90;;;;;;5093945;28;20032;-79
2022/12/31 10:26:14;;;;;;;10.38;6.25;;;12.70;99.90;;;;;;5075266;28;20036;-79
2022/12/31 10:29:07;;;;;;;3.45;1.98;;;12.60;99.90;;;;;;5102315;28;20031;-79
2022/12/31 10:31:57;;;;;;;6.10;2.53;;;12.70;99.90;;;;;;5092225;28;20042;-80
2022/12/31 10:35:00;;;;;;;17.00;8.02;;;12.70;99.90;;;;;;5092136;28;20031;-79
2022/12/31 10:37:35;;;;;;;6.38;3.03;;;12.80;99.90;;;;;;5106561;28;20408;-79
2022/12/31 10:40:06;;;;;;;3.45;1.20;;;12.80;99.90;;;;;;5091732;28;20040;-78
2022/12/31 10:43:09;;;;;;;6.00;2.17;;;12.80;99.90;;;;;;5091293;28;20032;-79
2022/12/31 10:46:02;;;;;;;7.60;4.37;;;13.00;99.90;;;;;;5091636;28;20233;-79
2022/12/31 10:49:06;;;;;;;6.13;1.88;;;12.90;99.90;;;;;;5090890;28;20043;-79
2022/12/31 10:52:00;;;;;;;3.33;1.23;;;12.80;99.90;;;;;;5074583;28;20071;-79
2022/12/31 10:54:49;;;;;;;6.45;1.83;;;13.00;99.90;;;;;;5090528;28;20509;-79
2022/12/31 10:57:32;;;;;;;3.92;1.60;;;12.90;99.90;;;;;;5091479;28;20395;-79
2022/12/31 11:00:20;;;;;;;5.05;1.42;;;13.10;99.90;;;;;;5091190;28;20454;-79
2022/12/31 11:03:08;;;;;;;5.70;1.70;;;13.20;99.90;;;;;;5090761;28;20051;-79
2022/12/31 11:05:45;;;;;;;6.22;2.60;;;13.30;99.90;;;;;;5074277;28;20044;-80
2022/12/31 11:08:40;;;;;;;10.02;2.33;;;13.10;99.90;;;;;;5091395;28;20577;-79
2022/12/31 11:11:36;;;;;;;10.07;1.42;;;13.30;99.90;;;;;;5091101;28;20036;-79
2022/12/31 11:14:01;;;;;;;9.00;3.05;;;13.10;99.90;;;;;;5090868;28;20044;-79
2022/12/31 11:16:41;;;;;;;8.43;2.13;;;13.20;99.90;;;;;;5091521;28;20043;-79
2022/12/31 11:19:49;;;;;;;9.70;2.92;;;13.40;99.90;;;;;;5091633;28;20040;-80
2022/12/31 11:22:45;;;;;;;12.98;4.50;;;13.30;99.90;;;;;;5090839;28;20063;-79
2022/12/31 11:25:10;;;;;;;4.65;2.08;;;13.40;99.90;;;;;;5091008;28;20401;-80
2022/12/31 11:28:13;;;;;;;9.30;3.50;;;13.60;99.90;;;;;;5095705;28;20032;-79
2022/12/31 11:31:08;;;;;;;8.75;2.78;;;13.50;99.90;;;;;;5090502;28;20398;-81
2022/12/31 11:34:02;;;;;;;7.32;2.08;;;13.50;99.90;;;;;;5093774;28;20076;-78
2022/12/31 11:36:40;;;;;;;11.07;2.28;;;13.50;99.90;;;;;;5094754;28;20051;-79
2022/12/31 11:39:28;;;;;;;9.10;2.53;;;13.40;99.90;;;;;;5098142;28;20082;-79
2022/12/31 11:42:13;;;;;;;8.80;3.42;;;13.70;99.90;;;;;;5102024;28;20036;-79
2022/12/31 11:44:58;;;;;;;12.77;3.60;;;13.70;99.90;;;;;;5095015;28;20028;-78
2022/12/31 11:47:55;;;;;;;24.88;13.95;;;13.50;99.90;;;;;;5106400;28;20039;-81
2022/12/31 11:50:26;;;;;;;4.60;1.70;;;13.60;99.90;;;;;;5105497;28;20028;-79
2022/12/31 11:53:22;;;;;;;5.65;2.17;;;13.60;99.90;;;;;;5098126;28;20035;-79
2022/12/31 11:55:59;;;;;;;6.80;2.53;;;13.80;99.90;;;;;;5108581;28;20043;-80
2022/12/31 11:58:27;;;;;;;448.92;404.52;;;13.60;99.90;;;;;;5114802;28;20447;-79
2022/12/31 12:01:08;;;;;;;19.60;11.70;;;13.70;99.90;;;;;;5115047;28;20071;-79
2022/12/31 12:03:37;;;;;;;3.83;2.35;;;13.80;99.90;;;;;;5114662;28;20546;-79
2022/12/31 12:06:03;;;;;;;5.32;2.03;;;13.90;99.90;;;;;;5114634;28;20501;-79
2022/12/31 12:08:31;;;;;;;97.97;76.35;;;13.60;99.90;;;;;;5114037;28;20042;-79
2022/12/31 12:11:04;;;;;;;6.93;4.38;;;13.60;99.90;;;;;;5097159;28;20130;-79
2022/12/31 12:13:29;;;;;;;6.43;4.10;;;13.60;99.90;;;;;;5113979;28;20650;-79
2022/12/31 12:15:58;;;;;;;6.55;3.20;;;13.70;99.90;;;;;;5114393;28;20043;-79
2022/12/31 12:18:32;;;;;;;9.82;5.30;;;13.90;99.90;;;;;;5110005;28;20035;-79
2022/12/31 12:21:16;;;;;;;8.90;3.30;;;13.70;99.90;;;;;;5101737;28;20068;-79
2022/12/31 12:23:57;;;;;;;8.65;5.00;;;13.70;99.90;;;;;;5093189;28;20036;-79
2022/12/31 12:26:26;;;;;;;6.13;3.88;;;13.80;99.90;;;;;;5094605;28;20119;-79
2022/12/31 12:28:52;;;;;;;6.13;2.25;;;13.50;99.90;;;;;;5093326;28;20082;-79
2022/12/31 12:31:21;;;;;;;7.35;5.63;;;13.80;99.90;;;;;;5093536;28;20063;-80
2022/12/31 12:33:49;;;;;;;9.10;2.40;;;13.50;99.90;;;;;;5093638;28;20043;-79
2022/12/31 12:36:16;;;;;;;4.43;2.10;;;13.50;99.90;;;;;;5093870;28;20043;-80
2022/12/31 12:38:42;;;;;;;8.63;4.55;;;13.80;99.90;;;;;;5093158;28;20040;-79
2022/12/31 12:41:23;;;;;;;8.23;5.82;;;13.70;99.90;;;;;;5093687;28;20444;-79
2022/12/31 12:44:00;;;;;;;8.32;4.75;;;13.80;99.90;;;;;;5093041;28;20055;-79
2022/12/31 12:46:43;;;;;;;9.88;3.60;;;13.80;99.90;;;;;;5093755;28;20040;-79
2022/12/31 12:49:22;;;;;;;7.63;3.65;;;13.50;99.90;;;;;;5096702;28;20417;-79
2022/12/31 12:52:28;;;;;;;6.70;4.20;;;13.40;99.90;;;;;;5101053;28;20050;-79
2022/12/31 12:55:33;;;;;;;6.82;3.78;;;13.60;99.90;;;;;;5079731;28;20122;-80
2022/12/31 12:58:28;;;;;;;46.25;27.15;;;13.50;99.90;;;;;;5088569;28;20036;-79
2022/12/31 13:01:08;;;;;;;9.23;4.40;;;13.40;99.90;;;;;;5058220;28;20112;-79
2022/12/31 13:03:45;;;;;;;8.27;3.40;;;13.70;99.90;;;;;;5096329;28;20508;-80
2022/12/31 13:06:24;;;;;;;7.40;3.53;;;13.70;99.90;;;;;;5113743;28;20036;-80
2022/12/31 13:09:17;;;;;;;10.77;3.97;;;13.50;99.90;;;;;;5113290;28;20045;-80
2022/12/31 13:12:08;;;;;;;50.33;31.13;;;13.60;99.90;;;;;;5114607;28;20458;-79
2022/12/31 13:14:47;;;;;;;11.35;3.33;;;13.80;99.90;;;;;;5112913;28;20046;-79
2022/12/31 13:17:36;;;;;;;8.68;2.38;;;13.50;99.90;;;;;;5113641;28;20039;-79
2022/12/31 13:20:46;;;;;;;7.90;2.38;;;13.70;99.90;;;;;;5112748;28;20050;-80
2022/12/31 13:23:30;;;;;;;9.82;4.40;;;13.70;99.90;;;;;;5087742;28;20036;-79
2022/12/31 13:26:19;;;;;;;9.73;2.60;;;13.50;99.90;;;;;;5084964;28;20382;-79
2022/12/31 13:28:47;;;;;;;7.97;2.58;;;13.50;99.90;;;;;;5102542;28;20031;-80
2022/12/31 13:31:16;;;;;;;7.85;2.63;;;13.60;99.90;;;;;;5112793;28;20400;-79
2022/12/31 13:33:48;;;;;;;7.75;2.97;;;13.40;99.90;;;;;;5111965;28;20097;-80
2022/12/31 13:36:18;;;;;;;9.82;3.10;;;13.50;99.90;;;;;;5096060;28;20120;-79
2022/12/31 13:38:49;;;;;;;9.63;4.43;;;13.60;99.90;;;;;;5103635;28;20039;-79
2022/12/31 13:41:27;;;;;;;16.20;3.45;;;13.50;99.90;;;;;;5097079;28;20418;-79
2022/12/31 13:44:07;;;;;;;8.40;4.28;;;13.30;99.90;;;;;;5075489;28;20032;-75